sensor_id;sensor_type;location;lat;lon;timestamp;pressure;altitude;pressure_sealevel;temperature;humidity
34073;BME280;20346;52.702;16.886;2023-05-24T00:00:05;100635.11;;;16.58;59.75
34073;BME280;20346;52.702;16.886;2023-05-24T00:02:56;100635.38;;;16.47;59.81
34073;BME280;20346;52.702;16.886;2023-05-24T00:05:42;100636.73;;;16.44;60.01
34073;BME280;20346;52.702;16.886;2023-05-24T00:08:33;100636.45;;;16.37;59.88
34073;BME280;20346;52.702;16.886;2023-05-24T00:11:20;100640.19;;;16.35;59.87
34073;BME280;20346;52.702;16.886;2023-05-24T00:14:07;100640.04;;;16.31;59.87
34073;BME280;20346;52.702;16.886;2023-05-24T00:16:53;100644.14;;;16.23;59.98
34073;BME280;20346;52.702;16.886;2023-05-24T00:19:40;100649.19;;;16.15;59.87
34073;BME280;20346;52.702;16.886;2023-05-24T00:22:27;100647.89;;;16.04;59.88
34073;BME280;20346;52.702;16.886;2023-05-24T00:25:14;100651.68;;;15.95;59.93
34073;BME280;20346;52.702;16.886;2023-05-24T00:28:00;100647.20;;;15.89;59.95
34073;BME280;20346;52.702;16.886;2023-05-24T00:30:46;100649.36;;;15.83;60.01
34073;BME280;20346;52.702;16.886;2023-05-24T00:33:32;100650.49;;;15.76;59.97
34073;BME280;20346;52.702;16.886;2023-05-24T00:36:19;100657.73;;;15.68;60.05
34073;BME280;20346;52.702;16.886;2023-05-24T00:39:05;100659.48;;;15.63;60.03
34073;BME280;20346;52.702;16.886;2023-05-24T00:41:51;100660.64;;;15.55;60.11
34073;BME280;20346;52.702;16.886;2023-05-24T00:44:38;100657.81;;;15.46;60.27
34073;BME280;20346;52.702;16.886;2023-05-24T00:47:24;100660.30;;;15.40;60.29
34073;BME280;20346;52.702;16.886;2023-05-24T00:50:11;100666.88;;;15.36;60.41
34073;BME280;20346;52.702;16.886;2023-05-24T00:53:03;100667.90;;;15.31;60.37
34073;BME280;20346;52.702;16.886;2023-05-24T00:55:51;100661.89;;;15.24;60.51
34073;BME280;20346;52.702;16.886;2023-05-24T00:58:37;100663.02;;;15.21;60.50
34073;BME280;20346;52.702;16.886;2023-05-24T01:01:23;100666.10;;;15.17;60.58
34073;BME280;20346;52.702;16.886;2023-05-24T01:04:10;100665.88;;;15.14;60.56
34073;BME280;20346;52.702;16.886;2023-05-24T01:10:49;100673.23;;;15.08;60.89
34073;BME280;20346;52.702;16.886;2023-05-24T01:13:43;100677.13;;;15.06;60.75
34073;BME280;20346;52.702;16.886;2023-05-24T01:16:45;100682.42;;;14.98;60.94
34073;BME280;20346;52.702;16.886;2023-05-24T01:26:31;100700.04;;;14.90;61.15
34073;BME280;20346;52.702;16.886;2023-05-24T01:29:22;100699.43;;;14.87;61.34
34073;BME280;20346;52.702;16.886;2023-05-24T01:32:09;100703.16;;;14.84;61.24
34073;BME280;20346;52.702;16.886;2023-05-24T01:34:57;100707.81;;;14.80;61.32
34073;BME280;20346;52.702;16.886;2023-05-24T01:37:44;100709.67;;;14.82;61.32
34073;BME280;20346;52.702;16.886;2023-05-24T01:40:30;100715.65;;;14.85;61.42
34073;BME280;20346;52.702;16.886;2023-05-24T01:43:39;100716.63;;;14.81;61.52
34073;BME280;20346;52.702;16.886;2023-05-24T01:46:34;100718.45;;;14.79;61.58
34073;BME280;20346;52.702;16.886;2023-05-24T01:49:30;100716.13;;;14.80;61.49
34073;BME280;20346;52.702;16.886;2023-05-24T01:52:21;100713.75;;;14.79;61.58
34073;BME280;20346;52.702;16.886;2023-05-24T01:55:09;100715.20;;;14.77;61.73
34073;BME280;20346;52.702;16.886;2023-05-24T01:58:00;100715.63;;;14.80;61.74
34073;BME280;20346;52.702;16.886;2023-05-24T02:00:47;100715.24;;;14.81;61.82
34073;BME280;20346;52.702;16.886;2023-05-24T02:03:33;100714.53;;;14.82;61.72
34073;BME280;20346;52.702;16.886;2023-05-24T02:06:22;100708.85;;;14.80;61.82
34073;BME280;20346;52.702;16.886;2023-05-24T02:09:09;100709.52;;;14.76;61.85
34073;BME280;20346;52.702;16.886;2023-05-24T02:11:55;100707.75;;;14.72;61.88
34073;BME280;20346;52.702;16.886;2023-05-24T02:14:41;100706.59;;;14.70;62.02
34073;BME280;20346;52.702;16.886;2023-05-24T02:17:29;100713.24;;;14.67;61.92
34073;BME280;20346;52.702;16.886;2023-05-24T02:20:17;100714.48;;;14.67;62.21
34073;BME280;20346;52.702;16.886;2023-05-24T02:23:05;100717.77;;;14.68;62.25
34073;BME280;20346;52.702;16.886;2023-05-24T02:25:51;100725.10;;;14.66;62.18
34073;BME280;20346;52.702;16.886;2023-05-24T02:28:38;100729.30;;;14.65;62.22
34073;BME280;20346;52.702;16.886;2023-05-24T02:31:24;100732.27;;;14.64;62.38
34073;BME280;20346;52.702;16.886;2023-05-24T02:34:14;100734.02;;;14.64;62.41
34073;BME280;20346;52.702;16.886;2023-05-24T02:37:00;100740.27;;;14.64;62.37
34073;BME280;20346;52.702;16.886;2023-05-24T02:39:47;100741.45;;;14.65;62.55
34073;BME280;20346;52.702;16.886;2023-05-24T02:42:33;100741.90;;;14.67;62.46
34073;BME280;20346;52.702;16.886;2023-05-24T02:45:19;100745.85;;;14.68;62.49
34073;BME280;20346;52.702;16.886;2023-05-24T02:48:05;100743.98;;;14.67;62.56
34073;BME280;20346;52.702;16.886;2023-05-24T02:50:51;100744.44;;;14.69;62.57
34073;BME280;20346;52.702;16.886;2023-05-24T02:53:38;100745.98;;;14.70;62.59
34073;BME280;20346;52.702;16.886;2023-05-24T02:56:24;100750.87;;;14.69;62.54
34073;BME280;20346;52.702;16.886;2023-05-24T02:59:11;100752.73;;;14.65;62.57
34073;BME280;20346;52.702;16.886;2023-05-24T03:01:58;100758.52;;;14.62;62.58
34073;BME280;20346;52.702;16.886;2023-05-24T03:04:44;100759.29;;;14.61;62.64
34073;BME280;20346;52.702;16.886;2023-05-24T03:07:30;100759.50;;;14.58;62.79
34073;BME280;20346;52.702;16.886;2023-05-24T03:10:16;100755.92;;;14.56;62.78
34073;BME280;20346;52.702;16.886;2023-05-24T03:13:03;100756.77;;;14.57;62.79
34073;BME280;20346;52.702;16.886;2023-05-24T03:15:49;100761.33;;;14.56;62.69
34073;BME280;20346;52.702;16.886;2023-05-24T03:18:35;100765.04;;;14.54;62.82
34073;BME280;20346;52.702;16.886;2023-05-24T03:21:21;100763.17;;;14.53;63.00
34073;BME280;20346;52.702;16.886;2023-05-24T03:24:08;100765.52;;;14.55;63.05
34073;BME280;20346;52.702;16.886;2023-05-24T03:26:54;100767.14;;;14.54;62.97
34073;BME280;20346;52.702;16.886;2023-05-24T03:29:40;100771.55;;;14.51;63.08
34073;BME280;20346;52.702;16.886;2023-05-24T03:32:26;100783.02;;;14.50;63.07
34073;BME280;20346;52.702;16.886;2023-05-24T03:35:12;100785.31;;;14.49;63.01
34073;BME280;20346;52.702;16.886;2023-05-24T03:37:59;100786.88;;;14.49;63.07
34073;BME280;20346;52.702;16.886;2023-05-24T03:40:45;100791.38;;;14.49;63.13
34073;BME280;20346;52.702;16.886;2023-05-24T03:43:32;100798.10;;;14.51;63.15
34073;BME280;20346;52.702;16.886;2023-05-24T03:46:18;100794.64;;;14.51;63.12
34073;BME280;20346;52.702;16.886;2023-05-24T03:49:05;100794.14;;;14.50;63.19
34073;BME280;20346;52.702;16.886;2023-05-24T03:51:52;100789.48;;;14.49;63.24
34073;BME280;20346;52.702;16.886;2023-05-24T03:54:38;100792.45;;;14.49;63.19
34073;BME280;20346;52.702;16.886;2023-05-24T03:57:24;100791.77;;;14.48;63.27
34073;BME280;20346;52.702;16.886;2023-05-24T04:00:10;100787.42;;;14.48;63.36
34073;BME280;20346;52.702;16.886;2023-05-24T04:02:57;100792.99;;;14.48;63.38
34073;BME280;20346;52.702;16.886;2023-05-24T04:05:45;100793.20;;;14.46;63.47
34073;BME280;20346;52.702;16.886;2023-05-24T04:08:31;100796.51;;;14.46;63.62
34073;BME280;20346;52.702;16.886;2023-05-24T04:11:17;100800.94;;;14.43;63.65
34073;BME280;20346;52.702;16.886;2023-05-24T04:14:03;100803.57;;;14.42;63.69
34073;BME280;20346;52.702;16.886;2023-05-24T04:16:49;100805.93;;;14.44;63.65
34073;BME280;20346;52.702;16.886;2023-05-24T04:19:36;100810.09;;;14.44;63.79
34073;BME280;20346;52.702;16.886;2023-05-24T04:22:23;100813.73;;;14.44;63.73
34073;BME280;20346;52.702;16.886;2023-05-24T04:25:10;100813.87;;;14.45;63.88
34073;BME280;20346;52.702;16.886;2023-05-24T04:27:56;100818.62;;;14.49;63.87
34073;BME280;20346;52.702;16.886;2023-05-24T04:30:43;100828.17;;;14.48;63.84
34073;BME280;20346;52.702;16.886;2023-05-24T04:33:34;100834.81;;;14.47;63.78
34073;BME280;20346;52.702;16.886;2023-05-24T04:36:21;100833.73;;;14.42;63.69
34073;BME280;20346;52.702;16.886;2023-05-24T04:39:08;100839.56;;;14.37;63.83
34073;BME280;20346;52.702;16.886;2023-05-24T04:41:57;100840.09;;;14.31;63.91
34073;BME280;20346;52.702;16.886;2023-05-24T04:44:45;100839.23;;;14.25;64.02
34073;BME280;20346;52.702;16.886;2023-05-24T04:47:31;100841.94;;;14.20;64.03
34073;BME280;20346;52.702;16.886;2023-05-24T04:50:19;100848.17;;;14.20;64.15
34073;BME280;20346;52.702;16.886;2023-05-24T04:53:04;100853.97;;;14.24;64.13
34073;BME280;20346;52.702;16.886;2023-05-24T04:55:51;100854.81;;;14.25;64.12
34073;BME280;20346;52.702;16.886;2023-05-24T04:58:37;100854.25;;;14.27;64.14
34073;BME280;20346;52.702;16.886;2023-05-24T05:01:24;100857.63;;;14.30;64.19
34073;BME280;20346;52.702;16.886;2023-05-24T05:04:10;100862.02;;;14.34;64.21
34073;BME280;20346;52.702;16.886;2023-05-24T05:06:57;100866.54;;;14.41;64.17
34073;BME280;20346;52.702;16.886;2023-05-24T05:09:43;100869.63;;;14.43;64.12
34073;BME280;20346;52.702;16.886;2023-05-24T05:12:29;100874.81;;;14.43;64.20
34073;BME280;20346;52.702;16.886;2023-05-24T05:15:16;100872.64;;;14.46;64.17
34073;BME280;20346;52.702;16.886;2023-05-24T05:18:04;100874.30;;;14.49;64.27
34073;BME280;20346;52.702;16.886;2023-05-24T05:20:50;100873.95;;;14.55;64.16
34073;BME280;20346;52.702;16.886;2023-05-24T05:23:41;100876.95;;;14.59;64.30
34073;BME280;20346;52.702;16.886;2023-05-24T05:26:28;100877.74;;;14.62;64.24
34073;BME280;20346;52.702;16.886;2023-05-24T05:29:16;100880.27;;;14.65;64.24
34073;BME280;20346;52.702;16.886;2023-05-24T05:32:03;100882.31;;;14.66;64.32
34073;BME280;20346;52.702;16.886;2023-05-24T05:34:49;100887.53;;;14.71;64.34
34073;BME280;20346;52.702;16.886;2023-05-24T05:37:37;100893.35;;;14.68;64.22
34073;BME280;20346;52.702;16.886;2023-05-24T05:40:29;100898.20;;;14.62;64.20
34073;BME280;20346;52.702;16.886;2023-05-24T05:43:16;100897.45;;;14.58;64.15
34073;BME280;20346;52.702;16.886;2023-05-24T05:46:03;100897.54;;;14.55;64.24
34073;BME280;20346;52.702;16.886;2023-05-24T05:48:50;100897.38;;;14.55;64.32
34073;BME280;20346;52.702;16.886;2023-05-24T05:51:37;100901.80;;;14.57;64.26
34073;BME280;20346;52.702;16.886;2023-05-24T05:54:24;100905.05;;;14.54;64.35
34073;BME280;20346;52.702;16.886;2023-05-24T05:57:12;100911.61;;;14.49;64.29
34073;BME280;20346;52.702;16.886;2023-05-24T05:59:59;100921.19;;;14.48;64.36
34073;BME280;20346;52.702;16.886;2023-05-24T06:02:46;100923.52;;;14.45;64.44
34073;BME280;20346;52.702;16.886;2023-05-24T06:05:35;100923.69;;;14.44;64.32
34073;BME280;20346;52.702;16.886;2023-05-24T06:08:21;100920.61;;;14.44;64.45
34073;BME280;20346;52.702;16.886;2023-05-24T06:11:11;100919.91;;;14.43;64.47
34073;BME280;20346;52.702;16.886;2023-05-24T06:13:57;100924.11;;;14.42;64.50
34073;BME280;20346;52.702;16.886;2023-05-24T06:16:48;100925.37;;;14.39;64.59
34073;BME280;20346;52.702;16.886;2023-05-24T06:20:16;100932.18;;;14.37;64.53
34073;BME280;20346;52.702;16.886;2023-05-24T06:23:03;100932.39;;;14.37;64.55
34073;BME280;20346;52.702;16.886;2023-05-24T06:25:49;100936.86;;;14.38;64.59
34073;BME280;20346;52.702;16.886;2023-05-24T06:28:36;100939.73;;;14.41;64.57
34073;BME280;20346;52.702;16.886;2023-05-24T06:31:22;100942.50;;;14.41;64.53
34073;BME280;20346;52.702;16.886;2023-05-24T06:34:08;100949.20;;;14.45;64.53
34073;BME280;20346;52.702;16.886;2023-05-24T06:36:54;100954.64;;;14.48;64.54
34073;BME280;20346;52.702;16.886;2023-05-24T06:39:41;100968.05;;;14.47;64.53
34073;BME280;20346;52.702;16.886;2023-05-24T06:42:27;100975.71;;;14.45;64.61
34073;BME280;20346;52.702;16.886;2023-05-24T06:45:13;100978.99;;;14.46;64.61
34073;BME280;20346;52.702;16.886;2023-05-24T06:48:01;100977.39;;;14.47;64.61
34073;BME280;20346;52.702;16.886;2023-05-24T06:50:47;100982.19;;;14.50;64.65
34073;BME280;20346;52.702;16.886;2023-05-24T06:53:33;100986.65;;;14.52;64.59
34073;BME280;20346;52.702;16.886;2023-05-24T06:56:19;100992.89;;;14.52;64.59
34073;BME280;20346;52.702;16.886;2023-05-24T06:59:06;100994.74;;;14.54;64.72
34073;BME280;20346;52.702;16.886;2023-05-24T07:01:53;100993.24;;;14.57;64.77
34073;BME280;20346;52.702;16.886;2023-05-24T07:04:42;100999.09;;;14.59;64.73
34073;BME280;20346;52.702;16.886;2023-05-24T07:07:28;101003.20;;;14.61;64.74
34073;BME280;20346;52.702;16.886;2023-05-24T07:10:14;101005.07;;;14.63;64.71
34073;BME280;20346;52.702;16.886;2023-05-24T07:13:00;101008.04;;;14.62;64.62
34073;BME280;20346;52.702;16.886;2023-05-24T07:15:48;101007.60;;;14.58;64.71
34073;BME280;20346;52.702;16.886;2023-05-24T07:18:34;101007.60;;;14.59;64.71
34073;BME280;20346;52.702;16.886;2023-05-24T07:21:20;101010.95;;;14.56;64.79
34073;BME280;20346;52.702;16.886;2023-05-24T07:24:07;101015.48;;;14.56;64.71
34073;BME280;20346;52.702;16.886;2023-05-24T07:26:53;101020.27;;;14.53;64.75
34073;BME280;20346;52.702;16.886;2023-05-24T07:29:42;101028.08;;;14.54;64.85
34073;BME280;20346;52.702;16.886;2023-05-24T07:32:28;101034.21;;;14.56;64.78
34073;BME280;20346;52.702;16.886;2023-05-24T07:35:14;101035.17;;;14.60;64.87
34073;BME280;20346;52.702;16.886;2023-05-24T07:38:00;101030.95;;;14.61;64.83
34073;BME280;20346;52.702;16.886;2023-05-24T07:40:47;101038.39;;;14.63;64.82
34073;BME280;20346;52.702;16.886;2023-05-24T07:43:33;101039.45;;;14.62;64.83
34073;BME280;20346;52.702;16.886;2023-05-24T07:46:19;101044.80;;;14.63;64.69
34073;BME280;20346;52.702;16.886;2023-05-24T07:49:06;101049.25;;;14.65;64.91
34073;BME280;20346;52.702;16.886;2023-05-24T07:51:53;101050.27;;;14.66;64.77
34073;BME280;20346;52.702;16.886;2023-05-24T07:54:43;101051.33;;;14.66;64.87
34073;BME280;20346;52.702;16.886;2023-05-24T07:57:29;101049.02;;;14.67;64.88
34073;BME280;20346;52.702;16.886;2023-05-24T08:00:16;101049.14;;;14.70;64.83
34073;BME280;20346;52.702;16.886;2023-05-24T08:03:04;101052.03;;;14.72;64.98
34073;BME280;20346;52.702;16.886;2023-05-24T08:05:50;101057.40;;;14.72;64.89
34073;BME280;20346;52.702;16.886;2023-05-24T08:08:38;101063.96;;;14.73;64.88
34073;BME280;20346;52.702;16.886;2023-05-24T08:11:46;101069.03;;;14.72;65.00
34073;BME280;20346;52.702;16.886;2023-05-24T08:14:33;101071.23;;;14.68;64.84
34073;BME280;20346;52.702;16.886;2023-05-24T08:17:19;101074.81;;;14.63;64.94
34073;BME280;20346;52.702;16.886;2023-05-24T08:20:32;101077.29;;;14.68;65.02
34073;BME280;20346;52.702;16.886;2023-05-24T08:23:32;101084.05;;;14.75;65.08
34073;BME280;20346;52.702;16.886;2023-05-24T08:26:27;101084.60;;;14.74;64.82
34073;BME280;20346;52.702;16.886;2023-05-24T08:29:13;101087.14;;;14.77;64.94
34073;BME280;20346;52.702;16.886;2023-05-24T08:32:04;101086.73;;;14.79;65.01
34073;BME280;20346;52.702;16.886;2023-05-24T08:34:56;101085.21;;;14.84;64.95
34073;BME280;20346;52.702;16.886;2023-05-24T08:37:45;101091.20;;;14.87;64.91
34073;BME280;20346;52.702;16.886;2023-05-24T08:46:07;101108.02;;;14.95;65.03
34073;BME280;20346;52.702;16.886;2023-05-24T08:52:24;101111.76;;;14.98;64.99
34073;BME280;20346;52.702;16.886;2023-05-24T09:13:09;101134.61;;;15.38;64.93
34073;BME280;20346;52.702;16.886;2023-05-24T09:16:04;101135.95;;;15.40;64.99
34073;BME280;20346;52.702;16.886;2023-05-24T09:18:57;101138.58;;;15.39;64.93
34073;BME280;20346;52.702;16.886;2023-05-24T09:22:07;101138.27;;;15.38;64.88
34073;BME280;20346;52.702;16.886;2023-05-24T09:25:01;101138.73;;;15.34;64.97
34073;BME280;20346;52.702;16.886;2023-05-24T09:28:34;101144.33;;;15.32;65.03
34073;BME280;20346;52.702;16.886;2023-05-24T09:31:37;101142.86;;;15.35;64.86
34073;BME280;20346;52.702;16.886;2023-05-24T09:34:44;101146.44;;;15.38;64.91
34073;BME280;20346;52.702;16.886;2023-05-24T09:37:55;101146.20;;;15.40;64.96
34073;BME280;20346;52.702;16.886;2023-05-24T09:41:07;101151.48;;;15.44;64.97
34073;BME280;20346;52.702;16.886;2023-05-24T09:44:29;101153.07;;;15.49;64.89
34073;BME280;20346;52.702;16.886;2023-05-24T09:47:51;101153.77;;;15.49;64.79
34073;BME280;20346;52.702;16.886;2023-05-24T09:50:40;101157.63;;;15.48;64.81
34073;BME280;20346;52.702;16.886;2023-05-24T09:53:48;101163.31;;;15.50;64.92
34073;BME280;20346;52.702;16.886;2023-05-24T09:57:00;101162.75;;;15.51;64.78
34073;BME280;20346;52.702;16.886;2023-05-24T09:59:51;101163.34;;;15.48;64.83
34073;BME280;20346;52.702;16.886;2023-05-24T10:02:39;101168.08;;;15.47;64.79
34073;BME280;20346;52.702;16.886;2023-05-24T10:05:44;101168.64;;;15.46;64.91
34073;BME280;20346;52.702;16.886;2023-05-24T10:08:55;101174.25;;;15.50;64.88
34073;BME280;20346;52.702;16.886;2023-05-24T10:11:42;101177.66;;;15.52;64.94
34073;BME280;20346;52.702;16.886;2023-05-24T10:14:37;101177.67;;;15.59;64.93
34073;BME280;20346;52.702;16.886;2023-05-24T10:17:34;101184.02;;;15.68;64.95
34073;BME280;20346;52.702;16.886;2023-05-24T10:20:42;101187.05;;;15.77;64.82
34073;BME280;20346;52.702;16.886;2023-05-24T10:23:47;101186.80;;;15.80;64.84
34073;BME280;20346;52.702;16.886;2023-05-24T10:26:38;101189.79;;;15.85;64.89
34073;BME280;20346;52.702;16.886;2023-05-24T10:32:56;101192.77;;;15.84;64.70
34073;BME280;20346;52.702;16.886;2023-05-24T10:35:50;101190.92;;;15.82;64.65
34073;BME280;20346;52.702;16.886;2023-05-24T10:38:38;101192.50;;;15.81;64.72
34073;BME280;20346;52.702;16.886;2023-05-24T10:41:40;101195.59;;;15.83;64.79
34073;BME280;20346;52.702;16.886;2023-05-24T10:44:26;101193.46;;;15.90;64.75
34073;BME280;20346;52.702;16.886;2023-05-24T10:47:16;101197.69;;;15.95;64.84
34073;BME280;20346;52.702;16.886;2023-05-24T10:50:39;101201.95;;;15.97;64.65
34073;BME280;20346;52.702;16.886;2023-05-24T10:53:27;101206.98;;;15.98;64.57
34073;BME280;20346;52.702;16.886;2023-05-24T10:56:31;101210.69;;;16.02;64.59
34073;BME280;20346;52.702;16.886;2023-05-24T10:59:34;101217.20;;;16.05;64.55
34073;BME280;20346;52.702;16.886;2023-05-24T11:02:26;101218.67;;;16.09;64.62
34073;BME280;20346;52.702;16.886;2023-05-24T11:09:08;101224.46;;;16.07;64.42
34073;BME280;20346;52.702;16.886;2023-05-24T11:12:14;101222.70;;;16.07;64.62
34073;BME280;20346;52.702;16.886;2023-05-24T11:49:50;101227.02;;;15.96;64.25
34073;BME280;20346;52.702;16.886;2023-05-24T12:11:10;101244.14;;;15.94;64.28
34073;BME280;20346;52.702;16.886;2023-05-24T12:13:52;101250.46;;;15.91;64.10
34073;BME280;20346;52.702;16.886;2023-05-24T13:02:42;101248.14;;;15.94;64.03
34073;BME280;20346;52.702;16.886;2023-05-24T13:05:27;101249.40;;;15.93;64.07
34073;BME280;20346;52.702;16.886;2023-05-24T13:08:10;101251.02;;;15.97;64.16
34073;BME280;20346;52.702;16.886;2023-05-24T13:21:18;101245.30;;;15.96;64.03
34073;BME280;20346;52.702;16.886;2023-05-24T13:28:54;101253.39;;;16.05;64.11
34073;BME280;20346;52.702;16.886;2023-05-24T13:31:46;101256.35;;;16.05;64.04
34073;BME280;20346;52.702;16.886;2023-05-24T13:39:44;101253.27;;;16.09;64.10
34073;BME280;20346;52.702;16.886;2023-05-24T14:28:27;101280.54;;;15.92;64.16
34073;BME280;20346;52.702;16.886;2023-05-24T14:31:22;101276.75;;;15.91;64.00
34073;BME280;20346;52.702;16.886;2023-05-24T14:34:10;101277.85;;;15.88;64.18
34073;BME280;20346;52.702;16.886;2023-05-24T14:52:16;101289.50;;;15.88;64.08
34073;BME280;20346;52.702;16.886;2023-05-24T14:55:07;101290.11;;;15.85;64.23
34073;BME280;20346;52.702;16.886;2023-05-24T14:57:52;101295.67;;;15.85;64.29
34073;BME280;20346;52.702;16.886;2023-05-24T15:00:42;101294.81;;;15.78;64.18
34073;BME280;20346;52.702;16.886;2023-05-24T15:03:22;101300.33;;;15.73;64.22
34073;BME280;20346;52.702;16.886;2023-05-24T15:06:11;101302.46;;;15.71;64.20
34073;BME280;20346;52.702;16.886;2023-05-24T15:08:47;101306.39;;;15.67;64.25
34073;BME280;20346;52.702;16.886;2023-05-24T15:11:51;101305.02;;;15.67;64.36
34073;BME280;20346;52.702;16.886;2023-05-24T15:27:37;101305.45;;;15.50;64.36
34073;BME280;20346;52.702;16.886;2023-05-24T15:46:06;101308.23;;;15.49;64.53
34073;BME280;20346;52.702;16.886;2023-05-24T16:21:57;101310.70;;;15.55;64.66
34073;BME280;20346;52.702;16.886;2023-05-24T16:24:53;101312.64;;;15.54;64.78
34073;BME280;20346;52.702;16.886;2023-05-24T16:28:02;101313.37;;;15.53;64.74
34073;BME280;20346;52.702;16.886;2023-05-24T16:30:50;101314.73;;;15.54;64.80
34073;BME280;20346;52.702;16.886;2023-05-24T16:33:43;101310.68;;;15.56;64.85
34073;BME280;20346;52.702;16.886;2023-05-24T16:36:29;101313.86;;;15.54;64.71
34073;BME280;20346;52.702;16.886;2023-05-24T16:39:16;101314.77;;;15.52;64.80
34073;BME280;20346;52.702;16.886;2023-05-24T16:42:01;101314.83;;;15.50;64.82
34073;BME280;20346;52.702;16.886;2023-05-24T16:44:47;101314.00;;;15.48;64.89
34073;BME280;20346;52.702;16.886;2023-05-24T16:47:31;101315.20;;;15.49;64.91
34073;BME280;20346;52.702;16.886;2023-05-24T16:50:17;101316.29;;;15.47;64.89
34073;BME280;20346;52.702;16.886;2023-05-24T16:53:05;101312.64;;;15.47;64.98
34073;BME280;20346;52.702;16.886;2023-05-24T16:56:00;101313.17;;;15.47;65.01
34073;BME280;20346;52.702;16.886;2023-05-24T16:59:14;101318.77;;;15.45;65.03
34073;BME280;20346;52.702;16.886;2023-05-24T17:02:00;101327.69;;;15.43;64.90
34073;BME280;20346;52.702;16.886;2023-05-24T17:04:45;101333.21;;;15.37;64.98
34073;BME280;20346;52.702;16.886;2023-05-24T17:07:30;101335.20;;;15.34;65.07
34073;BME280;20346;52.702;16.886;2023-05-24T17:10:14;101335.26;;;15.32;65.01
34073;BME280;20346;52.702;16.886;2023-05-24T17:13:00;101336.05;;;15.28;64.97
34073;BME280;20346;52.702;16.886;2023-05-24T17:15:44;101334.39;;;15.24;65.15
34073;BME280;20346;52.702;16.886;2023-05-24T17:18:29;101337.22;;;15.22;65.10
34073;BME280;20346;52.702;16.886;2023-05-24T17:21:13;101335.58;;;15.18;65.13
34073;BME280;20346;52.702;16.886;2023-05-24T17:23:58;101334.61;;;15.15;65.12
34073;BME280;20346;52.702;16.886;2023-05-24T17:26:42;101331.75;;;15.11;65.09
34073;BME280;20346;52.702;16.886;2023-05-24T17:29:28;101338.27;;;15.08;65.16
34073;BME280;20346;52.702;16.886;2023-05-24T17:32:14;101342.15;;;15.06;65.19
34073;BME280;20346;52.702;16.886;2023-05-24T17:34:58;101344.27;;;15.05;65.21
34073;BME280;20346;52.702;16.886;2023-05-24T17:37:44;101345.57;;;15.01;65.18
34073;BME280;20346;52.702;16.886;2023-05-24T17:40:30;101350.76;;;14.94;65.25
34073;BME280;20346;52.702;16.886;2023-05-24T17:43:36;101357.29;;;14.88;65.43
34073;BME280;20346;52.702;16.886;2023-05-24T17:47:09;101361.06;;;14.82;65.41
34073;BME280;20346;52.702;16.886;2023-05-24T17:50:18;101363.79;;;14.77;65.29
34073;BME280;20346;52.702;16.886;2023-05-24T17:53:31;101363.86;;;14.73;65.54
34073;BME280;20346;52.702;16.886;2023-05-24T17:56:22;101366.85;;;14.71;65.45
34073;BME280;20346;52.702;16.886;2023-05-24T17:59:55;101365.33;;;14.70;65.53
34073;BME280;20346;52.702;16.886;2023-05-24T18:03:40;101364.65;;;14.69;65.53
34073;BME280;20346;52.702;16.886;2023-05-24T18:07:24;101365.58;;;14.67;65.58
34073;BME280;20346;52.702;16.886;2023-05-24T18:11:08;101366.67;;;14.64;65.69
34073;BME280;20346;52.702;16.886;2023-05-24T18:14:53;101371.10;;;14.59;65.67
34073;BME280;20346;52.702;16.886;2023-05-24T18:22:05;101379.08;;;14.60;65.83
34073;BME280;20346;52.702;16.886;2023-05-24T18:25:32;101382.90;;;14.59;65.85
34073;BME280;20346;52.702;16.886;2023-05-24T18:29:00;101381.91;;;14.56;65.93
34073;BME280;20346;52.702;16.886;2023-05-24T18:31:47;101380.97;;;14.53;65.79
34073;BME280;20346;52.702;16.886;2023-05-24T18:34:33;101380.17;;;14.50;65.89
34073;BME280;20346;52.702;16.886;2023-05-24T18:37:19;101381.26;;;14.47;66.04
34073;BME280;20346;52.702;16.886;2023-05-24T18:40:08;101384.55;;;14.47;66.03
34073;BME280;20346;52.702;16.886;2023-05-24T18:43:14;101388.02;;;14.47;66.08
34073;BME280;20346;52.702;16.886;2023-05-24T18:46:41;101395.70;;;14.45;66.15
34073;BME280;20346;52.702;16.886;2023-05-24T18:49:27;101396.21;;;14.45;66.19
34073;BME280;20346;52.702;16.886;2023-05-24T18:52:11;101399.53;;;14.44;66.30
34073;BME280;20346;52.702;16.886;2023-05-24T18:54:56;101398.86;;;14.43;66.23
34073;BME280;20346;52.702;16.886;2023-05-24T18:57:41;101403.75;;;14.40;66.31
34073;BME280;20346;52.702;16.886;2023-05-24T19:00:25;101409.52;;;14.38;66.36
34073;BME280;20346;52.702;16.886;2023-05-24T19:03:10;101415.75;;;14.38;66.41
34073;BME280;20346;52.702;16.886;2023-05-24T19:05:54;101424.23;;;14.39;66.44
34073;BME280;20346;52.702;16.886;2023-05-24T19:08:39;101422.70;;;14.38;66.58
34073;BME280;20346;52.702;16.886;2023-05-24T19:11:23;101418.75;;;14.36;66.51
34073;BME280;20346;52.702;16.886;2023-05-24T19:14:08;101422.10;;;14.33;66.52
34073;BME280;20346;52.702;16.886;2023-05-24T19:16:53;101425.75;;;14.32;66.63
34073;BME280;20346;52.702;16.886;2023-05-24T19:19:37;101423.00;;;14.31;66.62
34073;BME280;20346;52.702;16.886;2023-05-24T19:22:21;101424.57;;;14.30;66.75
34073;BME280;20346;52.702;16.886;2023-05-24T19:25:06;101424.91;;;14.31;66.73
34073;BME280;20346;52.702;16.886;2023-05-24T19:27:51;101426.15;;;14.29;66.81
34073;BME280;20346;52.702;16.886;2023-05-24T19:30:34;101430.48;;;14.30;66.83
34073;BME280;20346;52.702;16.886;2023-05-24T19:33:23;101434.67;;;14.28;66.87